createdAt,value
2018-06-29T00:00:37.145Z,65.41
2018-06-29T00:01:37.140Z,64.90
2018-06-29T00:02:37.138Z,65.00
2018-06-29T00:03:37.137Z,65.00
2018-06-29T00:04:37.104Z,65.50
2018-06-29T00:05:37.088Z,64.90
2018-06-29T00:06:37.077Z,65.41
2018-06-29T00:07:37.066Z,65.30
2018-06-29T00:08:37.055Z,65.91
2018-06-29T00:09:37.068Z,65.70
2018-06-29T00:10:37.036Z,66.14
2018-06-29T00:11:37.025Z,65.80
2018-06-29T00:12:37.010Z,66.11
2018-06-29T00:13:36.999Z,66.14
2018-06-29T00:14:37.012Z,65.94
2018-06-29T00:15:36.984Z,66.14
2018-06-29T00:16:37.083Z,66.64
2018-06-29T00:17:36.956Z,66.54
2018-06-29T00:18:36.944Z,66.54
2018-06-29T00:19:36.961Z,66.54
2018-06-29T00:20:36.923Z,67.14
2018-06-29T00:21:36.912Z,67.44
2018-06-29T00:22:36.907Z,67.44
2018-06-29T00:23:36.893Z,67.14
2018-06-29T00:24:36.879Z,66.44
2018-06-29T00:25:36.912Z,67.14
2018-06-29T00:26:36.857Z,66.54
2018-06-29T00:27:36.845Z,67.35
2018-06-29T00:28:36.835Z,67.44
2018-06-29T00:29:36.826Z,68.35
2018-06-29T00:30:36.836Z,67.85
2018-06-29T00:31:36.802Z,67.74
2018-06-29T00:32:36.791Z,66.14
2018-06-29T00:33:36.781Z,65.33
2018-06-29T00:34:36.770Z,66.44
2018-06-29T00:35:36.796Z,67.35
2018-06-29T00:36:36.751Z,67.04
2018-06-29T00:37:36.739Z,67.04
2018-06-29T00:38:36.727Z,67.24
2018-06-29T00:39:36.715Z,67.14
2018-06-29T00:40:36.730Z,66.44
2018-06-29T00:41:36.694Z,66.14
2018-06-29T00:42:36.681Z,67.14
2018-06-29T00:43:36.671Z,67.65
2018-06-29T00:44:36.660Z,67.14
2018-06-29T00:45:36.672Z,66.64
2018-06-29T00:46:36.639Z,67.74
2018-06-29T00:47:36.629Z,67.55
2018-06-29T00:48:36.623Z,67.74
2018-06-29T00:49:36.606Z,67.85
2018-06-29T00:50:36.621Z,67.74
2018-06-29T00:51:36.590Z,66.94
2018-06-29T00:52:36.574Z,66.94
2018-06-29T00:53:36.566Z,67.55
2018-06-29T00:54:36.599Z,67.65
2018-06-29T00:55:36.565Z,67.24
2018-06-29T00:56:36.535Z,67.58
2018-06-29T00:57:36.522Z,67.38
2018-06-29T00:58:36.530Z,67.38
2018-06-29T00:59:36.495Z,67.35
2018-06-29T01:00:36.508Z,67.24
2018-06-29T01:01:36.476Z,66.97
2018-06-29T01:02:36.464Z,66.17
2018-06-29T01:03:36.461Z,67.58
2018-06-29T01:04:36.444Z,66.67
2018-06-29T01:05:36.458Z,67.47
2018-06-29T01:06:36.421Z,67.88
2018-06-29T01:07:36.412Z,67.07
2018-06-29T01:08:36.403Z,67.68
2018-06-29T01:09:36.390Z,67.41
2018-06-29T01:10:36.401Z,67.58
2018-06-29T01:11:36.369Z,68.01
2018-06-29T01:12:36.355Z,67.91
2018-06-29T01:13:36.343Z,68.01
2018-06-29T01:14:36.334Z,67.91
2018-06-29T01:15:36.348Z,68.11
2018-06-29T01:16:36.311Z,68.31
2018-06-29T01:17:36.300Z,68.31
2018-06-29T01:18:36.288Z,68.35
2018-06-29T01:19:36.280Z,68.21
2018-06-29T01:20:36.292Z,66.50
2018-06-29T01:21:36.260Z,68.24
2018-06-29T01:22:36.247Z,67.94
2018-06-29T01:23:36.235Z,68.15
2018-06-29T01:24:36.223Z,67.94
2018-06-29T01:25:36.237Z,67.81
2018-06-29T01:26:36.203Z,67.31
2018-06-29T01:27:36.192Z,67.91
2018-06-29T01:28:36.215Z,68.11
2018-06-29T01:29:36.169Z,67.21
2018-06-29T01:30:36.185Z,67.41
2018-06-29T01:31:36.148Z,67.61
2018-06-29T01:32:36.137Z,67.00
2018-06-29T01:33:36.127Z,66.80
2018-06-29T01:34:36.124Z,66.50
2018-06-29T01:35:36.129Z,66.50
2018-06-29T01:36:36.094Z,66.60
2018-06-29T01:37:36.083Z,66.60
2018-06-29T01:38:36.072Z,66.71
2018-06-29T01:39:36.063Z,66.60
2018-06-29T01:40:36.080Z,66.40
2018-06-29T01:41:36.041Z,67.11
2018-06-29T01:42:36.029Z,67.21
2018-06-29T01:43:36.020Z,66.60
2018-06-29T01:44:36.032Z,66.60
2018-06-29T01:45:36.020Z,66.60
2018-06-29T01:46:35.985Z,66.43
2018-06-29T01:47:35.976Z,66.53
2018-06-29T01:48:35.964Z,66.53
2018-06-29T01:49:35.956Z,67.03
2018-06-29T01:50:35.966Z,66.94
2018-06-29T01:51:35.933Z,67.34
2018-06-29T01:52:35.924Z,67.34
2018-06-29T01:53:35.911Z,67.74
2018-06-29T01:54:35.902Z,68.04
2018-06-29T01:55:35.913Z,68.08
2018-06-29T01:56:35.879Z,68.58
2018-06-29T01:57:35.868Z,68.98
2018-06-29T01:58:35.863Z,68.48
2018-06-29T01:59:35.849Z,68.78
2018-06-29T02:00:35.858Z,69.29
2018-06-29T02:01:35.825Z,69.09
2018-06-29T02:02:35.814Z,68.68
2018-06-29T02:03:35.804Z,68.38
2018-06-29T02:04:35.794Z,68.98
2018-06-29T02:05:35.807Z,68.78
2018-06-29T02:06:35.770Z,69.05
2018-06-29T02:07:35.773Z,68.95
2018-06-29T02:08:35.748Z,69.05
2018-06-29T02:09:35.740Z,68.85
2018-06-29T02:10:35.755Z,69.09
2018-06-29T02:11:35.717Z,68.78
2018-06-29T02:12:35.708Z,68.65
2018-06-29T02:13:35.695Z,68.75
2018-06-29T02:14:35.684Z,69.65
2018-06-29T02:15:35.697Z,70.16
2018-06-29T02:16:35.663Z,69.45
2018-06-29T02:17:35.654Z,69.25
2018-06-29T02:18:35.642Z,69.35
2018-06-29T02:19:35.630Z,69.76
2018-06-29T02:20:35.647Z,69.96
2018-06-29T02:21:35.610Z,68.95
2018-06-29T02:22:35.599Z,69.15
2018-06-29T02:23:35.588Z,68.95
2018-06-29T02:24:35.582Z,68.55
2018-06-29T02:25:35.591Z,68.75
2018-06-29T02:26:35.557Z,68.95
2018-06-29T02:27:35.607Z,69.15
2018-06-29T02:28:35.536Z,69.15
2018-06-29T02:29:35.525Z,68.75
2018-06-29T02:30:35.580Z,69.85
2018-06-29T02:31:35.504Z,69.05
2018-06-29T02:32:35.495Z,69.05
2018-06-29T02:33:35.486Z,68.04
2018-06-29T02:34:35.471Z,68.04
2018-06-29T02:35:35.485Z,68.35
2018-06-29T02:36:35.450Z,68.35
2018-06-29T02:37:35.440Z,67.44
2018-06-29T02:38:35.429Z,67.24
2018-06-29T02:39:35.418Z,66.94
2018-06-29T02:40:35.445Z,66.91
2018-06-29T02:41:35.398Z,66.63
2018-06-29T02:42:35.403Z,66.91
2018-06-29T02:43:35.390Z,66.63
2018-06-29T02:44:35.365Z,67.03
2018-06-29T02:45:35.378Z,66.94
2018-06-29T02:46:35.348Z,66.43
2018-06-29T02:47:35.333Z,66.63
2018-06-29T02:48:35.322Z,66.83
2018-06-29T02:49:35.311Z,66.94
2018-06-29T02:50:35.323Z,66.94
2018-06-29T02:51:35.289Z,67.14
2018-06-29T02:52:35.278Z,67.24
2018-06-29T02:53:35.285Z,67.44
2018-06-29T02:54:35.257Z,67.64
2018-06-29T02:55:35.273Z,67.88
2018-06-29T02:56:35.237Z,67.74
2018-06-29T02:57:35.226Z,66.83
2018-06-29T02:58:35.213Z,66.83
2018-06-29T02:59:35.206Z,68.58
2018-06-29T03:00:35.225Z,67.88
2018-06-29T03:01:35.180Z,68.28
2018-06-29T03:02:35.177Z,68.18
2018-06-29T03:03:35.160Z,67.77
2018-06-29T03:04:35.149Z,67.37
2018-06-29T03:05:35.166Z,67.97
2018-06-29T03:06:35.136Z,67.88
2018-06-29T03:07:35.118Z,68.18
2018-06-29T03:08:35.126Z,68.48
2018-06-29T03:09:35.097Z,67.97
2018-06-29T03:10:35.111Z,68.48
2018-06-29T03:11:35.082Z,69.99
2018-06-29T03:12:35.064Z,69.59
2018-06-29T03:13:35.056Z,69.79
2018-06-29T03:14:35.046Z,69.49
2018-06-29T03:15:35.063Z,69.29
2018-06-29T03:16:35.035Z,69.52
2018-06-29T03:17:35.015Z,68.71
2018-06-29T03:18:35.000Z,67.80
2018-06-29T03:19:34.989Z,69.12
2018-06-29T03:20:35.005Z,69.92
2018-06-29T03:21:34.967Z,69.92
2018-06-29T03:22:34.964Z,70.93
2018-06-29T03:23:34.953Z,69.52
2018-06-29T03:24:34.940Z,69.42
2018-06-29T03:25:34.951Z,70.42
2018-06-29T03:26:34.940Z,70.53
2018-06-29T03:27:34.909Z,71.94
2018-06-29T03:28:34.894Z,70.36
2018-06-29T03:29:34.884Z,71.44
2018-06-29T03:30:34.898Z,71.23
2018-06-29T03:31:34.866Z,70.36
2018-06-29T03:32:34.851Z,70.22
2018-06-29T03:33:34.840Z,70.73
2018-06-29T03:34:34.834Z,70.62
2018-06-29T03:35:34.844Z,70.46
2018-06-29T03:36:34.809Z,70.66
2018-06-29T03:37:34.798Z,70.76
2018-06-29T03:38:34.800Z,70.36
2018-06-29T03:39:34.790Z,70.66
2018-06-29T03:40:34.877Z,70.36
2018-06-29T03:41:34.756Z,70.36
2018-06-29T03:42:34.746Z,70.36
2018-06-29T03:43:34.736Z,70.06
2018-06-29T03:44:34.727Z,70.76
2018-06-29T03:45:34.737Z,71.57
2018-06-29T03:46:34.704Z,71.67
2018-06-29T03:47:34.693Z,71.47
2018-06-29T03:48:34.685Z,71.30
2018-06-29T03:49:34.737Z,71.91
2018-06-29T03:50:34.686Z,72.17
2018-06-29T03:51:34.652Z,72.47
2018-06-29T03:52:34.641Z,70.86
2018-06-29T03:53:34.642Z,71.97
2018-06-29T03:54:34.621Z,71.60
2018-06-29T03:55:34.633Z,71.40
2018-06-29T03:56:34.601Z,71.91
2018-06-29T03:57:34.588Z,72.20
2018-06-29T03:58:34.584Z,72.11
2018-06-29T03:59:34.566Z,71.80
2018-06-29T04:00:34.579Z,72.11
2018-06-29T04:01:34.545Z,71.91
2018-06-29T04:02:34.557Z,72.61
2018-06-29T04:03:34.525Z,72.81
2018-06-29T04:04:34.516Z,73.32
2018-06-29T04:05:34.530Z,72.31
2018-06-29T04:06:34.493Z,73.35
2018-06-29T04:07:34.482Z,73.05
2018-06-29T04:08:34.472Z,73.05
2018-06-29T04:09:34.463Z,72.85
2018-06-29T04:10:34.473Z,74.16
2018-06-29T04:11:34.441Z,73.75
2018-06-29T04:12:34.450Z,73.96
2018-06-29T04:13:34.421Z,73.75
2018-06-29T04:14:34.409Z,74.05
2018-06-29T04:15:34.424Z,73.96
2018-06-29T04:16:34.396Z,73.89
2018-06-29T04:17:34.377Z,74.46
2018-06-29T04:18:34.367Z,74.76
2018-06-29T04:19:34.356Z,74.69
2018-06-29T04:20:34.375Z,73.89
2018-06-29T04:21:34.335Z,75.37
2018-06-29T04:22:34.330Z,74.90
2018-06-29T04:23:34.314Z,74.56
2018-06-29T04:24:34.304Z,74.80
2018-06-29T04:25:34.335Z,75.10
2018-06-29T04:26:34.351Z,74.19
2018-06-29T04:27:34.273Z,73.96
2018-06-29T04:28:34.263Z,73.85
2018-06-29T04:29:34.251Z,74.09
2018-06-29T04:30:34.265Z,74.16
2018-06-29T04:31:34.232Z,74.05
2018-06-29T04:32:34.223Z,74.36
2018-06-29T04:33:34.208Z,74.05
2018-06-29T04:34:34.198Z,75.07
2018-06-29T04:35:34.242Z,74.96
2018-06-29T04:36:34.178Z,74.36
2018-06-29T04:37:34.166Z,74.05
2018-06-29T04:38:34.155Z,74.36
2018-06-29T04:39:34.145Z,74.56
2018-06-29T04:40:34.170Z,75.16
2018-06-29T04:41:34.123Z,75.57
2018-06-29T04:42:34.115Z,74.96
2018-06-29T04:43:34.112Z,76.07
2018-06-29T04:44:34.090Z,75.47
2018-06-29T04:45:34.121Z,76.18
2018-06-29T04:46:34.069Z,76.38
2018-06-29T04:47:34.059Z,77.02
2018-06-29T04:48:34.049Z,76.92
2018-06-29T04:49:34.053Z,76.78
2018-06-29T04:50:34.053Z,76.62
2018-06-29T04:51:34.018Z,77.53
2018-06-29T04:52:34.010Z,77.08
2018-06-29T04:53:34.000Z,75.77
2018-06-29T04:54:33.986Z,73.96
2018-06-29T04:55:34.000Z,76.88
2018-06-29T04:56:33.982Z,76.68
2018-06-29T04:57:33.955Z,76.58
2018-06-29T04:58:33.951Z,75.98
2018-06-29T04:59:33.933Z,76.34
2018-06-29T05:00:33.945Z,76.28
2018-06-29T05:01:33.918Z,76.78
2018-06-29T05:02:33.900Z,77.19
2018-06-29T05:03:33.890Z,76.88
2018-06-29T05:04:33.880Z,77.89
2018-06-29T05:05:33.893Z,77.08
2018-06-29T05:06:33.860Z,77.19
2018-06-29T05:07:33.849Z,76.68
2018-06-29T05:08:33.857Z,77.19
2018-06-29T05:09:33.833Z,76.78
2018-06-29T05:10:33.839Z,76.78
2018-06-29T05:11:33.805Z,76.88
2018-06-29T05:12:33.796Z,77.39
2018-06-29T05:13:33.789Z,76.58
2018-06-29T05:14:33.773Z,76.07
2018-06-29T05:15:33.796Z,76.07
2018-06-29T05:16:33.751Z,75.23
2018-06-29T05:17:33.741Z,75.94
2018-06-29T05:18:33.730Z,77.15
2018-06-29T05:19:33.719Z,77.95
2018-06-29T05:20:33.736Z,76.64
2018-06-29T05:21:33.701Z,75.74
2018-06-29T05:22:33.687Z,76.24
2018-06-29T05:23:33.676Z,75.03
2018-06-29T05:24:33.667Z,75.23
2018-06-29T05:25:33.679Z,74.63
2018-06-29T05:26:33.648Z,74.99
2018-06-29T05:27:33.635Z,73.18
2018-06-29T05:28:33.631Z,74.59
2018-06-29T05:29:33.613Z,75.90
2018-06-29T05:30:33.626Z,75.80
2018-06-29T05:31:33.592Z,75.40
2018-06-29T05:32:33.586Z,76.10
2018-06-29T05:33:33.571Z,75.80
2018-06-29T05:34:33.560Z,76.00
2018-06-29T05:35:33.575Z,74.99
2018-06-29T05:36:33.539Z,73.95
2018-06-29T05:37:33.528Z,74.46
2018-06-29T05:38:33.520Z,72.94
2018-06-29T05:39:33.507Z,74.15
2018-06-29T05:40:33.523Z,75.06
2018-06-29T05:41:33.549Z,74.86
2018-06-29T05:42:33.487Z,74.66
2018-06-29T05:43:33.466Z,75.06
2018-06-29T05:44:33.455Z,74.05
2018-06-29T05:45:33.470Z,73.35
2018-06-29T05:46:33.434Z,74.46
2018-06-29T05:47:33.424Z,73.14
2018-06-29T05:48:33.413Z,72.24
2018-06-29T05:49:33.412Z,72.74
2018-06-29T05:50:33.415Z,72.24
2018-06-29T05:51:33.382Z,73.92
2018-06-29T05:52:33.391Z,73.82
2018-06-29T05:53:33.361Z,74.02
2018-06-29T05:54:33.353Z,73.82
2018-06-29T05:55:33.368Z,73.11
2018-06-29T05:56:33.329Z,73.78
2018-06-29T05:57:33.373Z,73.21
2018-06-29T05:58:33.309Z,72.81
2018-06-29T05:59:33.298Z,73.82
2018-06-29T06:00:33.310Z,73.58
2018-06-29T06:01:33.276Z,73.88
2018-06-29T06:02:33.270Z,75.99
2018-06-29T06:03:33.256Z,74.89
2018-06-29T06:04:33.295Z,73.78
2018-06-29T06:05:33.292Z,73.48
2018-06-29T06:06:33.227Z,73.28
2018-06-29T06:07:33.215Z,73.68
2018-06-29T06:08:33.205Z,74.79
2018-06-29T06:09:33.191Z,74.38
2018-06-29T06:10:33.291Z,75.59
2018-06-29T06:11:33.172Z,75.15
2018-06-29T06:12:33.161Z,73.65
2018-06-29T06:13:33.150Z,72.67
2018-06-29T06:14:33.142Z,71.94
2018-06-29T06:15:33.275Z,72.44
2018-06-29T06:16:33.119Z,71.83
2018-06-29T06:17:33.108Z,71.73
2018-06-29T06:18:33.097Z,70.59
2018-06-29T06:19:33.087Z,72.00
2018-06-29T06:20:33.103Z,71.30
2018-06-29T06:21:33.065Z,71.09
2018-06-29T06:22:33.054Z,70.66
2018-06-29T06:23:33.043Z,70.36
2018-06-29T06:24:33.033Z,70.26
2018-06-29T06:25:33.060Z,70.53
2018-06-29T06:26:33.019Z,70.06
2018-06-29T06:27:33.001Z,68.85
2018-06-29T06:28:33.005Z,70.26
2018-06-29T06:29:32.979Z,69.12
2018-06-29T06:30:32.994Z,69.02
2018-06-29T06:31:32.962Z,69.92
2018-06-29T06:32:32.947Z,70.29
2018-06-29T06:33:32.936Z,69.69
2018-06-29T06:34:32.932Z,68.38
2018-06-29T06:35:32.939Z,69.99
2018-06-29T06:36:32.904Z,68.79
2018-06-29T06:37:32.897Z,68.88
2018-06-29T06:38:32.897Z,70.19
2018-06-29T06:39:32.872Z,70.36
2018-06-29T06:40:32.885Z,67.65
2018-06-29T06:41:32.873Z,66.05
2018-06-29T06:42:32.839Z,66.24
2018-06-29T06:43:32.829Z,66.55
2018-06-29T06:44:32.817Z,66.91
2018-06-29T06:45:32.829Z,66.01
2018-06-29T06:46:32.801Z,66.31
2018-06-29T06:47:32.784Z,66.21
2018-06-29T06:48:32.773Z,65.38
2018-06-29T06:49:32.764Z,65.68
2018-06-29T06:50:32.775Z,64.48
2018-06-29T06:51:32.742Z,65.58
2018-06-29T06:52:32.730Z,65.68
2018-06-29T06:53:32.729Z,64.98
2018-06-29T06:54:32.710Z,66.18
2018-06-29T06:55:32.721Z,65.48
2018-06-29T06:56:32.687Z,65.48
2018-06-29T06:57:32.676Z,65.15
2018-06-29T06:58:32.677Z,65.95
2018-06-29T06:59:32.695Z,65.45
2018-06-29T07:00:32.670Z,65.15
2018-06-29T07:01:32.653Z,64.95
2018-06-29T07:02:32.622Z,65.35
2018-06-29T07:03:32.611Z,65.52
2018-06-29T07:04:32.599Z,65.62
2018-06-29T07:05:32.612Z,65.52
2018-06-29T07:06:32.578Z,65.22
2018-06-29T07:07:32.567Z,62.92
2018-06-29T07:08:32.556Z,63.31
2018-06-29T07:09:32.544Z,62.78
2018-06-29T07:10:32.558Z,62.81
2018-06-29T07:11:32.523Z,62.08
2018-06-29T07:12:32.588Z,62.68
2018-06-29T07:13:32.501Z,62.58
2018-06-29T07:14:32.501Z,64.18
2018-06-29T07:15:32.503Z,63.28
2018-06-29T07:16:32.472Z,62.48
2018-06-29T07:17:32.458Z,63.06
2018-06-29T07:18:32.448Z,63.45
2018-06-29T07:19:32.437Z,63.85
2018-06-29T07:20:32.450Z,63.18
2018-06-29T07:21:32.415Z,62.28
2018-06-29T07:22:32.404Z,61.75
2018-06-29T07:23:32.397Z,61.05
2018-06-29T07:24:32.412Z,60.65
2018-06-29T07:25:32.394Z,61.45
2018-06-29T07:26:32.362Z,60.45
2018-06-29T07:27:32.349Z,60.65
2018-06-29T07:28:32.339Z,61.65
2018-06-29T07:29:32.341Z,60.72
2018-06-29T07:30:32.345Z,59.75
2018-06-29T07:31:32.306Z,60.22
2018-06-29T07:32:32.295Z,59.02
2018-06-29T07:33:32.286Z,59.62
2018-06-29T07:34:32.274Z,58.62
2018-06-29T07:35:32.288Z,59.02
2018-06-29T07:36:32.252Z,60.02
2018-06-29T07:37:32.251Z,60.42
2018-06-29T07:38:32.238Z,57.82
2018-06-29T07:39:32.221Z,59.42
2018-06-29T07:40:32.234Z,57.89
2018-06-29T07:41:32.197Z,58.19
2018-06-29T07:42:32.187Z,58.99
2018-06-29T07:43:32.177Z,59.79
2018-06-29T07:44:32.166Z,57.89
2018-06-29T07:45:32.181Z,57.50
2018-06-29T07:46:32.167Z,57.29
2018-06-29T07:47:32.139Z,57.89
2018-06-29T07:48:32.123Z,57.46
2018-06-29T07:49:32.113Z,57.57
2018-06-29T07:50:32.126Z,57.07
2018-06-29T07:51:32.093Z,56.46
2018-06-29T07:52:32.081Z,56.77
2018-06-29T07:53:32.070Z,56.77
2018-06-29T07:54:32.060Z,57.67
2018-06-29T07:55:32.073Z,57.24
2018-06-29T07:56:32.039Z,55.94
2018-06-29T07:57:32.055Z,56.64
2018-06-29T07:58:32.099Z,58.14
2018-06-29T07:59:32.007Z,58.24
2018-06-29T08:00:32.035Z,57.31
2018-06-29T08:01:31.985Z,56.91
2018-06-29T08:02:31.975Z,57.64
2018-06-29T08:03:31.964Z,57.71
2018-06-29T08:04:31.952Z,56.54
2018-06-29T08:05:31.966Z,56.21
2018-06-29T08:06:31.931Z,56.31
2018-06-29T08:07:31.920Z,56.01
2018-06-29T08:08:31.929Z,57.09
2018-06-29T08:09:31.899Z,56.79
2018-06-29T08:10:31.932Z,56.88
2018-06-29T08:11:31.884Z,57.18
2018-06-29T08:12:31.868Z,54.59
2018-06-29T08:13:31.857Z,55.88
2018-06-29T08:14:31.846Z,55.79
2018-06-29T08:15:31.861Z,55.58
2018-06-29T08:16:31.827Z,56.18
2018-06-29T08:17:31.815Z,56.66
2018-06-29T08:18:31.804Z,55.26
2018-06-29T08:19:31.793Z,55.96
2018-06-29T08:20:31.813Z,56.16
2018-06-29T08:21:31.773Z,54.46
2018-06-29T08:22:31.762Z,53.96
2018-06-29T08:23:31.751Z,52.84
2018-06-29T08:24:31.742Z,53.54
2018-06-29T08:25:31.753Z,53.14
2018-06-29T08:26:31.719Z,53.14
2018-06-29T08:27:31.719Z,53.54
2018-06-29T08:28:31.697Z,52.14
2018-06-29T08:29:31.688Z,52.34
2018-06-29T08:30:31.721Z,52.84
2018-06-29T08:31:31.666Z,53.74
2018-06-29T08:32:31.657Z,54.11
2018-06-29T08:33:31.665Z,53.52
2018-06-29T08:34:31.635Z,51.12
2018-06-29T08:35:31.648Z,51.32
2018-06-29T08:36:31.613Z,52.62
2018-06-29T08:37:31.602Z,53.02
2018-06-29T08:38:31.639Z,53.02
2018-06-29T08:39:31.581Z,52.32
2018-06-29T08:40:31.595Z,52.42
2018-06-29T08:41:31.561Z,54.11
2018-06-29T08:42:31.552Z,52.79
2018-06-29T08:43:31.538Z,52.19
2018-06-29T08:44:31.538Z,52.39
2018-06-29T08:45:31.544Z,53.86
2018-06-29T08:46:31.507Z,54.36
2018-06-29T08:47:31.495Z,54.16
2018-06-29T08:48:31.484Z,53.56
2018-06-29T08:49:31.507Z,51.97
2018-06-29T08:50:31.488Z,52.64
2018-06-29T08:51:31.452Z,52.74
2018-06-29T08:52:31.442Z,50.75
2018-06-29T08:53:31.431Z,52.24
2018-06-29T08:54:31.434Z,52.94
2018-06-29T08:55:31.437Z,52.14
2018-06-29T08:56:31.402Z,51.45
2018-06-29T08:57:31.388Z,50.45
2018-06-29T08:58:31.380Z,51.54
2018-06-29T08:59:31.367Z,52.22
2018-06-29T09:00:31.379Z,52.14
2018-06-29T09:01:31.347Z,52.02
2018-06-29T09:02:31.334Z,50.63
2018-06-29T09:03:31.327Z,50.52
2018-06-29T09:04:31.316Z,50.03
2018-06-29T09:05:31.326Z,50.82
2018-06-29T09:06:31.292Z,50.63
2018-06-29T09:07:31.282Z,50.73
2018-06-29T09:08:31.271Z,51.30
2018-06-29T09:09:31.264Z,52.59
2018-06-29T09:10:31.273Z,52.69
2018-06-29T09:11:31.239Z,49.61
2018-06-29T09:12:31.228Z,48.22
2018-06-29T09:13:31.218Z,50.20
2018-06-29T09:14:31.210Z,48.11
2018-06-29T09:15:31.223Z,47.92
2018-06-29T09:16:31.187Z,49.41
2018-06-29T09:17:31.178Z,51.89
2018-06-29T09:18:31.165Z,50.40
2018-06-29T09:19:31.155Z,52.00
2018-06-29T09:20:31.168Z,48.52
2018-06-29T09:21:31.133Z,48.19
2018-06-29T09:22:31.136Z,50.31
2018-06-29T09:23:31.112Z,50.48
2018-06-29T09:24:31.103Z,48.10
2018-06-29T09:25:31.117Z,47.99
2018-06-29T09:26:31.133Z,49.19
2018-06-29T09:27:31.084Z,48.69
2018-06-29T09:28:31.060Z,50.05
2018-06-29T09:29:31.051Z,48.66
2018-06-29T09:30:31.062Z,47.67
2018-06-29T09:31:31.028Z,47.65
2018-06-29T09:32:31.017Z,46.95
2018-06-29T09:33:31.007Z,48.35
2018-06-29T09:34:30.998Z,46.76
2018-06-29T09:35:31.011Z,48.44
2018-06-29T09:36:30.980Z,48.44
2018-06-29T09:37:30.966Z,49.71
2018-06-29T09:38:30.957Z,46.24
2018-06-29T09:39:30.944Z,47.03
2018-06-29T09:40:30.957Z,46.34
2018-06-29T09:41:30.923Z,45.32
2018-06-29T09:42:30.975Z,46.71
2018-06-29T09:43:30.904Z,46.61
2018-06-29T09:44:30.892Z,46.71
2018-06-29T09:45:30.906Z,45.82
2018-06-29T09:46:30.871Z,45.00
2018-06-29T09:47:30.860Z,45.40
2018-06-29T09:48:30.849Z,45.10
2018-06-29T09:49:30.838Z,43.42
2018-06-29T09:50:30.868Z,44.71
2018-06-29T09:51:30.820Z,43.71
2018-06-29T09:52:30.807Z,43.71
2018-06-29T09:53:30.797Z,44.41
2018-06-29T09:54:30.787Z,43.02
2018-06-29T09:55:30.877Z,43.82
2018-06-29T09:56:30.767Z,43.32
2018-06-29T09:57:30.759Z,42.90
2018-06-29T09:58:30.744Z,44.19
2018-06-29T09:59:30.733Z,43.08
2018-06-29T10:00:30.751Z,44.76
2018-06-29T10:01:30.783Z,44.86
2018-06-29T10:02:31.691Z,43.38
2018-06-29T10:03:30.699Z,42.66
2018-06-29T10:04:30.680Z,42.96
2018-06-29T10:05:30.692Z,44.54
2018-06-29T10:06:30.674Z,43.33
2018-06-29T10:07:30.648Z,43.93
2018-06-29T10:08:30.639Z,44.92
2018-06-29T10:09:30.626Z,44.72
2018-06-29T10:10:30.643Z,43.41
2018-06-29T10:11:30.632Z,45.29
2018-06-29T10:12:30.594Z,44.48
2018-06-29T10:13:30.591Z,42.90
2018-06-29T10:14:30.661Z,41.99
2018-06-29T10:15:30.587Z,43.07
2018-06-29T10:16:30.552Z,42.58
2018-06-29T10:17:30.541Z,40.90
2018-06-29T10:18:30.531Z,41.57
2018-06-29T10:19:30.664Z,41.38
2018-06-29T10:20:30.535Z,40.88
2018-06-29T10:21:30.500Z,40.66
2018-06-29T10:22:30.544Z,38.69
2018-06-29T10:23:30.493Z,38.75
2018-06-29T10:24:30.470Z,36.84
2018-06-29T10:25:30.539Z,34.92
2018-06-29T10:26:30.466Z,34.95
2018-06-29T10:27:30.438Z,33.14
2018-06-29T10:28:30.427Z,31.60
2018-06-29T10:29:30.416Z,29.02
2018-06-29T10:30:30.434Z,28.28
2018-06-29T10:31:30.395Z,27.08
2018-06-29T10:32:30.385Z,25.48
2018-06-29T10:33:30.376Z,22.72
2018-06-29T10:34:30.366Z,22.12
2018-06-29T10:35:30.380Z,22.58
2018-06-29T10:36:30.357Z,22.10
2018-06-29T10:37:30.337Z,22.00
2018-06-29T10:38:30.326Z,22.37
2018-06-29T10:39:30.323Z,20.31
2018-06-29T10:40:30.331Z,20.26
2018-06-29T10:41:30.388Z,19.77
2018-06-29T10:42:30.289Z,19.18
2018-06-29T10:43:30.286Z,19.75
2018-06-29T10:44:30.272Z,20.70
2018-06-29T10:45:30.289Z,18.57
2018-06-29T10:46:30.260Z,18.26
2018-06-29T10:47:30.247Z,18.63
2018-06-29T10:48:30.237Z,18.14
2018-06-29T10:49:30.229Z,16.41
2018-06-29T10:50:30.255Z,17.07
2018-06-29T10:51:30.213Z,17.43
2018-06-29T10:52:30.205Z,16.66
2018-06-29T10:53:30.213Z,16.84
2018-06-29T10:54:30.190Z,16.17
2018-06-29T10:55:30.206Z,17.41
2018-06-29T10:56:30.175Z,17.69
2018-06-29T10:57:30.165Z,16.55
2018-06-29T10:58:30.162Z,16.55
2018-06-29T10:59:30.166Z,16.53
2018-06-29T11:00:30.172Z,16.65
2018-06-29T11:01:30.136Z,16.36
2018-06-29T11:02:30.129Z,16.08
2018-06-29T11:03:30.122Z,16.27
2018-06-29T11:04:30.113Z,16.17
2018-06-29T11:05:30.150Z,16.65
2018-06-29T11:06:30.100Z,15.59
2018-06-29T11:07:30.095Z,13.85
2018-06-29T11:08:30.092Z,15.67
2018-06-29T11:09:30.077Z,15.77
2018-06-29T11:10:30.095Z,15.96
2018-06-29T11:11:30.063Z,15.48
2018-06-29T11:12:30.055Z,14.16
2018-06-29T11:13:30.050Z,16.46
2018-06-29T11:14:30.052Z,16.27
2018-06-29T11:15:30.075Z,15.70
2018-06-29T11:16:30.199Z,15.20
2018-06-29T11:17:30.220Z,16.55
2018-06-29T11:18:30.222Z,14.90
2018-06-29T11:19:30.255Z,14.42
2018-06-29T11:20:30.365Z,15.47
2018-06-29T11:21:30.072Z,15.09
2018-06-29T11:22:30.227Z,16.34
2018-06-29T11:23:29.983Z,16.14
2018-06-29T11:24:30.094Z,15.19
2018-06-29T11:25:30.124Z,16.14
2018-06-29T11:26:30.040Z,16.24
2018-06-29T11:27:29.960Z,15.47
2018-06-29T11:28:30.075Z,15.46
2018-06-29T11:29:30.229Z,16.41
2018-06-29T11:30:30.108Z,16.11
2018-06-29T11:31:29.934Z,14.96
2018-06-29T11:32:29.947Z,15.53
2018-06-29T11:33:29.950Z,14.39
2018-06-29T11:34:29.918Z,13.53
2018-06-29T11:35:29.996Z,15.61
2018-06-29T11:36:29.943Z,13.71
2018-06-29T11:37:29.904Z,15.05
2018-06-29T11:38:29.893Z,12.18
2018-06-29T11:39:29.985Z,13.80
2018-06-29T11:40:29.900Z,13.79
2018-06-29T11:41:29.865Z,13.99
2018-06-29T11:42:29.926Z,14.09
2018-06-29T11:43:29.892Z,14.47
2018-06-29T11:44:29.859Z,15.72
2018-06-29T11:45:29.863Z,14.40
2018-06-29T11:46:29.826Z,14.11
2018-06-29T11:47:29.824Z,15.07
2018-06-29T11:48:29.836Z,14.50
2018-06-29T11:49:29.809Z,15.72
2018-06-29T11:50:29.909Z,13.73
2018-06-29T11:51:29.830Z,14.01
2018-06-29T11:52:29.785Z,14.22
2018-06-29T11:53:29.784Z,15.07
2018-06-29T11:54:29.772Z,15.66
2018-06-29T11:55:29.808Z,14.41
2018-06-29T11:56:29.761Z,15.08
2018-06-29T11:57:29.747Z,15.56
2018-06-29T11:58:29.744Z,14.81
2018-06-29T11:59:29.731Z,15.37
2018-06-29T12:00:29.798Z,15.77
2018-06-29T12:01:29.715Z,14.43
2018-06-29T12:02:29.710Z,14.43
2018-06-29T12:03:29.724Z,13.85
2018-06-29T12:04:29.702Z,14.61
2018-06-29T12:05:29.717Z,13.93
2018-06-29T12:06:29.680Z,14.12
2018-06-29T12:07:29.674Z,14.22
2018-06-29T12:08:29.662Z,13.45
2018-06-29T12:09:29.654Z,14.50
2018-06-29T12:10:29.672Z,14.40
2018-06-29T12:11:29.639Z,13.73
2018-06-29T12:12:29.634Z,13.16
2018-06-29T12:13:29.641Z,13.82
2018-06-29T12:14:29.616Z,14.29
2018-06-29T12:15:29.632Z,13.53
2018-06-29T12:16:29.602Z,12.21
2018-06-29T12:17:29.602Z,13.83
2018-06-29T12:18:29.586Z,14.22
2018-06-29T12:19:29.579Z,12.69
2018-06-29T12:20:29.593Z,14.12
2018-06-29T12:21:29.566Z,13.75
2018-06-29T12:22:29.555Z,14.70
2018-06-29T12:23:29.566Z,13.93
2018-06-29T12:24:29.541Z,13.83
2018-06-29T12:25:29.566Z,14.01
2018-06-29T12:26:29.526Z,13.92
2018-06-29T12:27:29.517Z,12.76
2018-06-29T12:28:29.510Z,12.86
2018-06-29T12:29:29.502Z,13.70
2018-06-29T12:30:29.522Z,12.85
2018-06-29T12:31:29.489Z,14.08
2018-06-29T12:32:29.501Z,13.90
2018-06-29T12:33:29.490Z,12.47
2018-06-29T12:34:29.468Z,13.80
2018-06-29T12:35:29.484Z,12.37
2018-06-29T12:36:29.451Z,13.80
2018-06-29T12:37:29.446Z,14.00
2018-06-29T12:38:29.437Z,13.80
2018-06-29T12:39:29.426Z,14.36
2018-06-29T12:40:29.445Z,14.26
2018-06-29T12:41:29.411Z,13.88
2018-06-29T12:42:29.404Z,13.60
2018-06-29T12:43:29.407Z,13.70
2018-06-29T12:44:29.388Z,13.89
2018-06-29T12:45:29.409Z,13.81
2018-06-29T12:46:29.381Z,14.00
2018-06-29T12:47:29.367Z,13.70
2018-06-29T12:48:29.368Z,13.80
2018-06-29T12:49:29.360Z,13.81
2018-06-29T12:50:29.367Z,15.09
2018-06-29T12:51:29.338Z,17.44
2018-06-29T12:52:29.328Z,18.44